Time;durP1;ratioP1;P1;durP2;ratioP2;P2;SDS_P1;SDS_P2;PMS_P1;PMS_P2;Temp;Humidity;BMP_temperature;BMP_pressure;BME280_temperature;BME280_humidity;BME280_pressure;Samples;Min_cycle;Max_cycle;Signal;HPM_P1;HPM_P2
2023/06/23 00:02:11;;;;;;;;;;;;;;;-144.99;100.00;52142.38;5089645;28;20141;-69
2023/06/23 00:04:38;;;;;;;;;;;;;;;-144.99;100.00;52105.69;5089739;28;20314;-68
2023/06/23 00:07:05;;;;;;;;;;;;;;;-144.99;100.00;52158.66;5089783;28;19971;-67
2023/06/23 00:09:33;;;;;;;;;;;;;;;-144.99;100.00;52142.38;5089236;28;20439;-69
2023/06/23 00:11:59;;;;;;;;;;;;;;;-144.99;100.00;52146.44;5088564;28;19932;-69
2023/06/23 00:14:26;;;;;;;;;;;;;;;-144.99;100.00;52130.13;5088665;28;20413;-68
2023/06/23 00:16:52;;;;;;;;;;;;;;;-144.99;100.00;52158.66;5086280;28;20037;-68
2023/06/23 00:19:19;;;;;;;;;;;;;;;-144.99;100.00;52162.75;5088181;28;20050;-68
2023/06/23 00:21:46;;;;;;;;;;;;;;;-144.99;100.00;52166.81;5088916;28;19939;-68
2023/06/23 00:24:12;;;;;;;;;;;;;;;-144.99;100.00;52168.84;5089297;28;19964;-68
2023/06/23 00:26:40;;;;;;;;;;;;;;;-144.99;100.00;52160.72;5087031;28;19943;-68
2023/06/23 00:29:07;;;;;;;;;;;;;;;-144.99;100.00;52121.97;5085904;28;20293;-68
2023/06/23 00:31:33;;;;;;;;;;;;;;;-144.99;100.00;52162.75;5088759;28;19975;-68
2023/06/23 00:34:00;;;;;;;;;;;;;;;-144.99;100.00;52134.22;5088471;28;19934;-68
2023/06/23 00:36:30;;;;;;;;;;;;;;;-144.99;100.00;52154.59;5090012;28;19943;-68
2023/06/23 00:38:57;;;;;;;;;;;;;;;-144.99;100.00;52121.97;5090361;28;19944;-68
2023/06/23 00:41:23;;;;;;;;;;;;;;;-144.99;100.00;52158.66;5086692;28;19970;-68
2023/06/23 00:43:51;;;;;;;;;;;;;;;-144.99;100.00;52138.28;5089664;28;20419;-68
2023/06/23 00:46:21;;;;;;;;;;;;;;;-144.99;100.00;52138.28;5087911;28;19947;-69
2023/06/23 00:48:47;;;;;;;;;;;;;;;-144.99;100.00;52140.31;5086461;28;19971;-69
2023/06/23 00:51:15;;;;;;;;;;;;;;;-144.99;100.00;52170.91;5087135;28;19963;-69
2023/06/23 00:53:42;;;;;;;;;;;;;;;-144.99;100.00;52154.59;5087306;28;19946;-69
2023/06/23 00:56:09;;;;;;;;;;;;;;;-144.99;100.00;52183.13;5075501;28;19947;-69
2023/06/23 00:58:36;;;;;;;;;;;;;;;-144.99;100.00;52172.94;5083080;28;20400;-69
2023/06/23 01:01:05;;;;;;;;;;;;;;;-144.99;100.00;52203.50;5087117;28;19954;-69
2023/06/23 01:03:32;;;;;;;;;;;;;;;-144.99;100.00;52166.81;5083614;28;19947;-69
2023/06/23 01:06:01;;;;;;;;;;;;;;;-144.99;100.00;52179.06;5080504;28;20455;-68
2023/06/23 01:08:33;;;;;;;;;;;;;;;-144.99;100.00;52164.78;5087366;28;19948;-69
2023/06/23 01:11:02;;;;;;;;;;;;;;;-144.99;100.00;52170.91;5087182;28;20144;-68
2023/06/23 01:13:33;;;;;;;;;;;;;;;-144.99;100.00;52146.44;5086642;28;19965;-69
2023/06/23 01:16:02;;;;;;;;;;;;;;;-144.99;100.00;52154.59;5079767;28;19992;-69
2023/06/23 01:18:36;;;;;;;;;;;;;;;-144.99;100.00;52170.91;5086845;28;19944;-68
2023/06/23 01:21:05;;;;;;;;;;;;;;;-144.99;100.00;52191.28;5085589;28;19957;-69
2023/06/23 01:23:45;;;;;;;;;;;;;;;-144.99;100.00;52154.59;5087315;28;20330;-68
2023/06/23 01:26:19;;;;;;;;;;;;;;;-144.99;100.00;52119.94;5086400;28;19924;-68
2023/06/23 01:28:50;;;;;;;;;;;;;;;-144.99;100.00;52154.59;5083891;28;20009;-68
2023/06/23 01:31:20;;;;;;;;;;;;;;;-144.99;100.00;52154.59;5086605;28;20347;-68
2023/06/23 01:33:49;;;;;;;;;;;;;;;-144.99;100.00;52146.44;5087546;28;20376;-67
2023/06/23 01:36:19;;;;;;;;;;;;;;;-144.99;100.00;52162.75;5083540;28;19943;-68
2023/06/23 01:38:49;;;;;;;;;;;;;;;-144.99;100.00;52142.38;5087365;28;20384;-68
2023/06/23 01:41:17;;;;;;;;;;;;;;;-144.99;100.00;52134.22;5086455;28;19960;-68
2023/06/23 01:43:47;;;;;;;;;;;;;;;-144.99;100.00;52160.72;5086042;28;20066;-68
2023/06/23 01:46:18;;;;;;;;;;;;;;;-144.99;100.00;52166.81;5086749;28;19943;-67
2023/06/23 01:48:47;;;;;;;;;;;;;;;-144.99;100.00;52138.28;5086477;28;19946;-68
2023/06/23 01:51:17;;;;;;;;;;;;;;;-144.99;100.00;52130.13;5086166;28;19963;-67
2023/06/23 01:53:45;;;;;;;;;;;;;;;-144.99;100.00;52179.06;5078774;28;19960;-68
2023/06/23 01:56:12;;;;;;;;;;;;;;;-144.99;100.00;52187.19;5079988;28;20022;-68
2023/06/23 01:58:39;;;;;;;;;;;;;;;-144.99;100.00;52126.06;5080153;28;20380;-67
2023/06/23 02:01:07;;;;;;;;;;;;;;;-144.99;100.00;52150.53;5086440;28;19967;-67
2023/06/23 02:03:36;;;;;;;;;;;;;;;-144.99;100.00;52130.13;5086601;28;19938;-68
2023/06/23 02:06:04;;;;;;;;;;;;;;;-144.99;100.00;52130.13;5086947;28;20135;-67
2023/06/23 02:08:31;;;;;;;;;;;;;;;-144.99;100.00;52170.91;5085704;28;19940;-67
2023/06/23 02:10:58;;;;;;;;;;;;;;;-144.99;100.00;52166.81;5081952;28;19957;-67
2023/06/23 02:13:26;;;;;;;;;;;;;;;-144.99;100.00;52146.44;5090073;28;19969;-68
2023/06/23 02:15:54;;;;;;;;;;;;;;;-144.99;100.00;52187.19;5089992;28;19953;-68
2023/06/23 02:18:21;;;;;;;;;;;;;;;-144.99;100.00;52183.13;5086024;28;20270;-68
2023/06/23 02:20:49;;;;;;;;;;;;;;;-144.99;100.00;52150.53;5086138;28;20277;-68
2023/06/23 02:23:16;;;;;;;;;;;;;;;-144.99;100.00;52160.72;5086409;28;19965;-68
2023/06/23 02:25:44;;;;;;;;;;;;;;;-144.99;100.00;52172.94;5085676;28;20540;-70
2023/06/23 02:28:12;;;;;;;;;;;;;;;-144.99;100.00;52174.97;5085036;28;20271;-69
2023/06/23 02:30:39;;;;;;;;;;;;;;;-144.99;100.00;52170.91;5085794;28;19956;-68
2023/06/23 02:33:06;;;;;;;;;;;;;;;-144.99;100.00;52162.75;5086563;28;19956;-69
2023/06/23 02:35:33;;;;;;;;;;;;;;;-144.99;100.00;52136.25;5085692;28;20307;-68
2023/06/23 02:38:03;;;;;;;;;;;;;;;-144.99;100.00;52158.66;5085005;28;19943;-68
2023/06/23 02:40:31;;;;;;;;;;;;;;;-144.99;100.00;52162.75;5085079;28;20969;-70
2023/06/23 02:43:01;;;;;;;;;;;;;;;-144.99;100.00;52146.44;5084077;28;19934;-67
2023/06/23 02:45:29;;;;;;;;;;;;;;;-144.99;100.00;52168.84;5085656;28;19962;-68
2023/06/23 02:47:57;;;;;;;;;;;;;;;-144.99;100.00;52181.09;5084810;28;19942;-68
2023/06/23 02:50:27;;;;;;;;;;;;;;;-144.99;100.00;52142.38;5085167;28;20214;-70
2023/06/23 02:52:56;;;;;;;;;;;;;;;-144.99;100.00;52138.28;5084461;28;20256;-69
2023/06/23 02:55:26;;;;;;;;;;;;;;;-144.99;100.00;52154.59;5082360;28;19948;-69
2023/06/23 02:57:54;;;;;;;;;;;;;;;-144.99;100.00;52179.06;5084288;28;19952;-69
2023/06/23 03:00:23;;;;;;;;;;;;;;;-144.99;100.00;52115.88;5085470;28;19957;-68
2023/06/23 03:02:52;;;;;;;;;;;;;;;-144.99;100.00;52138.28;5085088;28;19954;-69
2023/06/23 03:05:21;;;;;;;;;;;;;;;-144.99;100.00;52164.78;5084540;28;20274;-68
2023/06/23 03:07:48;;;;;;;;;;;;;;;-144.99;100.00;52195.34;5089485;28;20006;-68
2023/06/23 03:10:14;;;;;;;;;;;;;;;-144.99;100.00;52168.84;5087718;28;19955;-68
2023/06/23 03:12:43;;;;;;;;;;;;;;;-144.99;100.00;52138.28;5088560;28;19960;-68
2023/06/23 03:15:09;;;;;;;;;;;;;;;-144.99;100.00;52134.22;5085297;28;19928;-68
2023/06/23 03:17:38;;;;;;;;;;;;;;;-144.99;100.00;52211.66;5088473;28;19952;-69
2023/06/23 03:20:08;;;;;;;;;;;;;;;-144.99;100.00;52211.66;5084959;28;20063;-69
2023/06/23 03:22:38;;;;;;;;;;;;;;;-144.99;100.00;52191.28;5087449;28;20149;-69
2023/06/23 03:25:06;;;;;;;;;;;;;;;-144.99;100.00;52146.44;5090284;28;19938;-69
2023/06/23 03:27:34;;;;;;;;;;;;;;;-144.99;100.00;52174.97;5087935;28;19978;-66
2023/06/23 03:30:03;;;;;;;;;;;;;;;-144.99;100.00;52138.28;5086524;28;20014;-68
2023/06/23 03:32:33;;;;;;;;;;;;;;;-144.99;100.00;52162.75;5089005;28;20004;-68
2023/06/23 03:35:10;;;;;;;;;;;;;;;-144.99;100.00;52195.34;5088901;28;19960;-68
2023/06/23 03:37:40;;;;;;;;;;;;;;;-144.99;100.00;52199.44;5088668;28;20263;-68
2023/06/23 03:40:11;;;;;;;;;;;;;;;-144.99;100.00;52166.81;5088735;28;19957;-68
2023/06/23 03:42:41;;;;;;;;;;;;;;;-144.99;100.00;52162.75;5087757;28;20349;-68
2023/06/23 03:45:11;;;;;;;;;;;;;;;-144.99;100.00;52183.13;5083856;28;19944;-69
2023/06/23 03:47:40;;;;;;;;;;;;;;;-144.99;100.00;52166.81;5089039;28;19940;-68
2023/06/23 03:50:09;;;;;;;;;;;;;;;-144.99;100.00;52130.13;5088602;28;20278;-68
2023/06/23 03:52:38;;;;;;;;;;;;;;;-144.99;100.00;52154.59;5089663;28;20025;-68
2023/06/23 03:55:06;;;;;;;;;;;;;;;-144.99;100.00;52166.81;5089104;28;20290;-69
2023/06/23 03:57:34;;;;;;;;;;;;;;;-144.99;100.00;52113.84;5088120;28;20447;-69
2023/06/23 04:00:02;;;;;;;;;;;;;;;-144.99;100.00;52166.81;5088654;28;19956;-69
2023/06/23 04:02:32;;;;;;;;;;;;;;;-144.99;100.00;52146.44;5088254;28;19944;-69
2023/06/23 04:05:00;;;;;;;;;;;;;;;-144.99;100.00;52199.44;5089430;28;19948;-70
2023/06/23 04:07:28;;;;;;;;;;;;;;;-144.99;100.00;52156.63;5089218;28;19952;-68
2023/06/23 04:09:55;;;;;;;;;;;;;;;-144.99;100.00;52132.19;5088977;28;20515;-68
2023/06/23 04:12:22;;;;;;;;;;;;;;;-144.99;100.00;52199.44;5088213;28;19938;-69
2023/06/23 04:14:51;;;;;;;;;;;;;;;-144.99;100.00;52146.44;5088995;28;20041;-69
2023/06/23 04:17:20;;;;;;;;;;;;;;;-144.99;100.00;52154.59;5083819;28;19941;-68
2023/06/23 04:19:49;;;;;;;;;;;;;;;-144.99;100.00;52223.88;5089106;28;19970;-69
2023/06/23 04:22:18;;;;;;;;;;;;;;;-144.99;100.00;52168.84;5088802;28;19940;-70
2023/06/23 04:24:46;;;;;;;;;;;;;;;-144.99;100.00;52170.91;5088771;28;19992;-69
2023/06/23 04:27:13;;;;;;;;;;;;;;;-144.99;100.00;52193.31;5083297;28;19952;-70
2023/06/23 04:29:42;;;;;;;;;;;;;;;-144.99;100.00;52162.75;5088272;28;19966;-68
2023/06/23 04:32:11;;;;;;;;;;;;;;;-144.99;100.00;52158.66;5088339;28;19939;-69
2023/06/23 04:34:38;;;;;;;;;;;;;;;-144.99;100.00;52170.91;5086521;28;20384;-69
2023/06/23 04:37:07;;;;;;;;;;;;;;;-144.99;100.00;52150.53;5088974;28;19937;-68
2023/06/23 04:39:37;;;;;;;;;;;;;;;-144.99;100.00;52142.38;5079851;28;20466;-69
2023/06/23 04:42:08;;;;;;;;;;;;;;;-144.99;100.00;52199.44;5089514;28;19944;-69
2023/06/23 04:44:38;;;;;;;;;;;;;;;-144.99;100.00;52183.13;5089114;28;19946;-68
2023/06/23 04:47:06;;;;;;;;;;;;;;;-144.99;100.00;52179.06;5088973;28;20333;-69
2023/06/23 04:49:33;;;;;;;;;;;;;;;-144.99;100.00;52187.19;5087430;28;19969;-69
2023/06/23 04:52:03;;;;;;;;;;;;;;;-144.99;100.00;52187.19;5088063;28;19943;-69
2023/06/23 04:54:39;;;;;;;;;;;;;;;-144.99;100.00;52126.06;5085033;28;19955;-69
2023/06/23 04:57:09;;;;;;;;;;;;;;;-144.99;100.00;52174.97;5087945;28;19969;-70
2023/06/23 04:59:38;;;;;;;;;;;;;;;-144.99;100.00;52170.91;5083720;28;19959;-69
2023/06/23 05:02:06;;;;;;;;;;;;;;;-144.99;100.00;52179.06;5087850;28;20728;-69
2023/06/23 05:04:34;;;;;;;;;;;;;;;-144.99;100.00;52138.28;5087779;28;19942;-69
2023/06/23 05:07:02;;;;;;;;;;;;;;;-144.99;100.00;52166.81;5088489;28;20411;-69
2023/06/23 05:09:32;;;;;;;;;;;;;;;-144.99;100.00;52199.44;5084960;28;19961;-69
2023/06/23 05:12:01;;;;;;;;;;;;;;;-144.99;100.00;52177.00;5087562;28;19949;-70
2023/06/23 05:14:29;;;;;;;;;;;;;;;-144.99;100.00;52183.13;5088166;28;19961;-69
2023/06/23 05:16:59;;;;;;;;;;;;;;;-144.99;100.00;52172.94;5088944;28;20159;-69
2023/06/23 05:19:26;;;;;;;;;;;;;;;-144.99;100.00;52126.06;5087565;28;20452;-69
2023/06/23 05:21:55;;;;;;;;;;;;;;;-144.99;100.00;52158.66;5087015;28;20226;-69
2023/06/23 05:24:25;;;;;;;;;;;;;;;-144.99;100.00;52164.78;5088974;28;19946;-69
2023/06/23 05:26:54;;;;;;;;;;;;;;;-144.99;100.00;52162.75;5087932;28;19942;-69
2023/06/23 05:29:21;;;;;;;;;;;;;;;-144.99;100.00;52170.91;5087580;28;19960;-69
2023/06/23 05:31:49;;;;;;;;;;;;;;;-144.99;100.00;52166.81;5088065;28;19947;-69
2023/06/23 05:34:18;;;;;;;;;;;;;;;-144.99;100.00;52164.78;5088400;28;20031;-68
2023/06/23 05:36:45;;;;;;;;;;;;;;;-144.99;100.00;52162.75;5087600;28;19947;-68
2023/06/23 05:39:15;;;;;;;;;;;;;;;-144.99;100.00;52154.59;5088714;28;19956;-68
2023/06/23 05:41:42;;;;;;;;;;;;;;;-144.99;100.00;52150.53;5088460;28;19946;-68
2023/06/23 05:44:10;;;;;;;;;;;;;;;-144.99;100.00;52174.97;5087448;28;19950;-70
2023/06/23 05:46:39;;;;;;;;;;;;;;;-144.99;100.00;52158.66;5081852;28;19949;-69
2023/06/23 05:49:08;;;;;;;;;;;;;;;-144.99;100.00;52215.75;5081980;28;19946;-69
2023/06/23 05:51:36;;;;;;;;;;;;;;;-144.99;100.00;52138.28;5088571;28;20193;-69
2023/06/23 05:54:07;;;;;;;;;;;;;;;-144.99;100.00;52197.41;5089846;28;19977;-69
2023/06/23 05:56:37;;;;;;;;;;;;;;;-144.99;100.00;52138.28;5088960;28;20313;-68
2023/06/23 05:59:07;;;;;;;;;;;;;;;-144.99;100.00;52183.13;5089122;28;19939;-68
2023/06/23 06:01:37;;;;;;;;;;;;;;;-144.99;100.00;52146.44;5088225;28;20459;-68
2023/06/23 06:04:07;;;;;;;;;;;;;;;-144.99;100.00;52162.75;5088329;28;19942;-69
2023/06/23 06:06:35;;;;;;;;;;;;;;;-144.99;100.00;52142.38;5088614;28;20389;-69
2023/06/23 06:09:02;;;;;;;;;;;;;;;-144.99;100.00;52179.06;5087279;28;19936;-69
2023/06/23 06:11:29;;;;;;;;;;;;;;;-144.99;100.00;52146.44;5088021;28;19940;-69
2023/06/23 06:13:57;;;;;;;;;;;;;;;-144.99;100.00;52174.97;5088483;28;19975;-69
2023/06/23 06:16:24;;;;;;;;;;;;;;;-144.99;100.00;52126.06;5088880;28;19941;-68
2023/06/23 06:18:53;;;;;;;;;;;;;;;-144.99;100.00;52152.56;5089068;28;19963;-69
2023/06/23 06:21:20;;;;;;;;;;;;;;;-144.99;100.00;52199.44;5088794;28;19957;-68
2023/06/23 06:23:47;;;;;;;;;;;;;;;-144.99;100.00;52195.34;5088079;28;19957;-68
2023/06/23 06:26:15;;;;;;;;;;;;;;;-144.99;100.00;52138.28;5087597;28;20056;-70
2023/06/23 06:28:44;;;;;;;;;;;;;;;-144.99;100.00;52154.59;5080900;28;19954;-68
2023/06/23 06:31:11;;;;;;;;;;;;;;;-144.99;100.00;52117.91;5086513;28;20457;-68
2023/06/23 06:33:38;;;;;;;;;;;;;;;-144.99;100.00;52150.53;5086765;28;19928;-68
2023/06/23 06:36:08;;;;;;;;;;;;;;;-144.99;100.00;52134.22;5086087;28;19938;-69
2023/06/23 06:38:35;;;;;;;;;;;;;;;-144.99;100.00;52130.13;5087207;28;19943;-68
2023/06/23 06:41:04;;;;;;;;;;;;;;;-144.99;100.00;52142.38;5084406;28;20449;-68
2023/06/23 06:43:30;;;;;;;;;;;;;;;-144.99;100.00;52138.28;5089328;28;19939;-68
2023/06/23 06:45:57;;;;;;;;;;;;;;;-144.99;100.00;52146.44;5093136;28;19940;-69
2023/06/23 06:48:26;;;;;;;;;;;;;;;-144.99;100.00;52174.97;5093550;28;19945;-69
2023/06/23 06:50:54;;;;;;;;;;;;;;;-144.99;100.00;52150.53;5089736;28;19958;-69
2023/06/23 06:53:22;;;;;;;;;;;;;;;-144.99;100.00;52158.66;5094796;28;20373;-69
2023/06/23 06:55:49;;;;;;;;;;;;;;;-144.99;100.00;52109.75;5092398;28;20035;-69
2023/06/23 06:58:17;;;;;;;;;;;;;;;-144.99;100.00;52146.44;5096988;28;19940;-69
2023/06/23 07:00:44;;;;;;;;;;;;;;;-144.99;100.00;52134.22;5097996;28;20030;-69
2023/06/23 07:03:11;;;;;;;;;;;;;;;-144.99;100.00;52199.44;5097867;28;19944;-69
2023/06/23 07:05:37;;;;;;;;;;;;;;;-144.99;100.00;52160.72;5096420;28;20016;-69
2023/06/23 07:08:05;;;;;;;;;;;;;;;-144.99;100.00;52156.63;5095300;28;19949;-69
2023/06/23 07:10:34;;;;;;;;;;;;;;;-144.99;100.00;52138.28;5094621;28;20035;-70
2023/06/23 07:13:01;;;;;;;;;;;;;;;-144.99;100.00;52150.53;5093733;28;20019;-70
2023/06/23 07:15:28;;;;;;;;;;;;;;;-144.99;100.00;52154.59;5093410;28;19971;-69
2023/06/23 07:17:54;;;;;;;;;;;;;;;-144.99;100.00;52126.06;5092234;28;19940;-69
2023/06/23 07:20:21;;;;;;;;;;;;;;;-144.99;100.00;52158.66;5093326;28;19950;-69
2023/06/23 07:22:48;;;;;;;;;;;;;;;-144.99;100.00;52148.47;5032537;28;1962398;-70
2023/06/23 07:25:14;;;;;;;;;;;;;;;-144.99;100.00;52162.75;5096179;28;19948;-69
2023/06/23 07:27:42;;;;;;;;;;;;;;;-144.99;100.00;52183.13;5091242;28;19945;-70
2023/06/23 07:30:09;;;;;;;;;;;;;;;-144.99;100.00;52162.75;5092093;28;20449;-69
2023/06/23 07:32:36;;;;;;;;;;;;;;;-144.99;100.00;52172.94;5093368;28;19957;-69
2023/06/23 07:35:03;;;;;;;;;;;;;;;-144.99;100.00;52183.13;5091418;28;19962;-69
2023/06/23 07:37:29;;;;;;;;;;;;;;;-144.99;100.00;52174.97;5091746;28;20415;-69
2023/06/23 07:39:56;;;;;;;;;;;;;;;-144.99;100.00;52168.84;5089687;28;20151;-69
2023/06/23 07:42:23;;;;;;;;;;;;;;;-144.99;100.00;52160.72;5087325;28;19938;-69
2023/06/23 07:44:51;;;;;;;;;;;;;;;-144.99;100.00;52166.81;5091360;28;19938;-69
2023/06/23 07:47:17;;;;;;;;;;;;;;;-144.99;100.00;52183.13;5088417;28;19940;-69
2023/06/23 07:49:44;;;;;;;;;;;;;;;-144.99;100.00;52179.06;5089800;28;20433;-69
2023/06/23 07:52:11;;;;;;;;;;;;;;;-144.99;100.00;52172.94;5091032;28;19940;-69
2023/06/23 07:54:37;;;;;;;;;;;;;;;-144.99;100.00;52146.44;5091405;28;19959;-70
2023/06/23 07:57:08;;;;;;;;;;;;;;;-144.99;100.00;52162.75;5086231;28;19936;-70
2023/06/23 07:59:34;;;;;;;;;;;;;;;-144.99;100.00;52152.56;5091999;28;20019;-69
2023/06/23 08:02:02;;;;;;;;;;;;;;;-144.99;100.00;52195.34;5088975;28;20408;-69
2023/06/23 08:04:29;;;;;;;;;;;;;;;-144.99;100.00;52166.81;5090838;28;19948;-69
2023/06/23 08:06:55;;;;;;;;;;;;;;;-144.99;100.00;52189.25;5092082;28;19946;-69
2023/06/23 08:09:22;;;;;;;;;;;;;;;-144.99;100.00;52134.22;5092059;28;19953;-69
2023/06/23 08:11:49;;;;;;;;;;;;;;;-144.99;100.00;52138.28;5093435;28;19953;-70
2023/06/23 08:14:16;;;;;;;;;;;;;;;-144.99;100.00;52166.81;5079199;28;19971;-70
2023/06/23 08:16:43;;;;;;;;;;;;;;;-144.99;100.00;52191.28;5088536;28;19959;-69
2023/06/23 08:19:11;;;;;;;;;;;;;;;-144.99;100.00;52166.81;5090314;28;19940;-70
2023/06/23 08:21:37;;;;;;;;;;;;;;;-144.99;100.00;52160.72;5090079;28;19940;-69
2023/06/23 08:24:04;;;;;;;;;;;;;;;-144.99;100.00;52170.91;5090294;28;19946;-68
2023/06/23 08:26:32;;;;;;;;;;;;;;;-144.99;100.00;52126.06;5090471;28;19940;-69
2023/06/23 08:28:58;;;;;;;;;;;;;;;-144.99;100.00;52174.97;5089885;28;19985;-70
2023/06/23 08:31:25;;;;;;;;;;;;;;;-144.99;100.00;52150.53;5082234;28;19945;-70
2023/06/23 08:33:52;;;;;;;;;;;;;;;-144.99;100.00;52117.91;5090366;28;20413;-68
2023/06/23 08:36:20;;;;;;;;;;;;;;;-144.99;100.00;52146.44;5090180;28;19936;-68
2023/06/23 08:38:48;;;;;;;;;;;;;;;-144.99;100.00;52115.88;5091684;28;19992;-69
2023/06/23 08:41:16;;;;;;;;;;;;;;;-144.99;100.00;52134.22;5090010;28;20310;-68
2023/06/23 08:43:44;;;;;;;;;;;;;;;-144.99;100.00;52170.91;5071585;28;19951;-68
2023/06/23 08:46:13;;;;;;;;;;;;;;;-144.99;100.00;52154.59;5090558;28;19941;-69
2023/06/23 08:48:42;;;;;;;;;;;;;;;-144.99;100.00;52168.84;5089045;28;20432;-69
2023/06/23 08:51:08;;;;;;;;;;;;;;;-144.99;100.00;52134.22;5088757;28;20038;-70
2023/06/23 08:53:37;;;;;;;;;;;;;;;-144.99;100.00;52166.81;5089199;28;20333;-69
2023/06/23 08:56:03;;;;;;;;;;;;;;;-144.99;100.00;52119.94;5087455;28;19964;-69
2023/06/23 08:58:30;;;;;;;;;;;;;;;-144.99;100.00;52158.66;5088783;28;19978;-69
2023/06/23 09:00:57;;;;;;;;;;;;;;;-144.99;100.00;52154.59;5088954;28;19954;-69
2023/06/23 09:03:23;;;;;;;;;;;;;;;-144.99;100.00;52146.44;5085816;28;19963;-70
2023/06/23 09:05:50;;;;;;;;;;;;;;;-144.99;100.00;52191.28;5088968;28;19935;-70
2023/06/23 09:08:17;;;;;;;;;;;;;;;-144.99;100.00;52121.97;5091331;28;20311;-70
2023/06/23 09:10:45;;;;;;;;;;;;;;;-144.99;100.00;52158.66;5093301;28;19958;-70
2023/06/23 09:13:20;;;;;;;;;;;;;;;-144.99;100.00;52105.69;5090007;28;20302;-69
2023/06/23 09:15:47;;;;;;;;;;;;;;;-144.99;100.00;52130.13;5089753;28;20489;-70
2023/06/23 09:18:15;;;;;;;;;;;;;;;-144.99;100.00;52109.75;5087286;28;19942;-69
2023/06/23 09:20:44;;;;;;;;;;;;;;;-144.99;100.00;52097.53;5091503;28;19958;-69
2023/06/23 09:23:13;;;;;;;;;;;;;;;-144.99;100.00;52126.06;5090823;28;19990;-70
2023/06/23 09:25:40;;;;;;;;;;;;;;;-144.99;100.00;52126.06;5071194;28;19952;-70
2023/06/23 09:28:08;;;;;;;;;;;;;;;-144.99;100.00;52121.97;5085955;28;19938;-70
2023/06/23 09:30:36;;;;;;;;;;;;;;;-144.99;100.00;52166.81;5088553;28;19981;-70
2023/06/23 09:33:04;;;;;;;;;;;;;;;-144.99;100.00;52134.22;5087784;28;20391;-70
2023/06/23 09:35:31;;;;;;;;;;;;;;;-144.99;100.00;52150.53;5085947;28;19960;-70
2023/06/23 09:37:58;;;;;;;;;;;;;;;-144.99;100.00;52158.66;5087811;28;19937;-70
2023/06/23 09:40:28;;;;;;;;;;;;;;;-144.99;100.00;52158.66;5087929;28;19960;-69
2023/06/23 09:42:58;;;;;;;;;;;;;;;-144.99;100.00;52130.13;5086398;28;19935;-69
2023/06/23 09:45:26;;;;;;;;;;;;;;;-144.99;100.00;52148.47;5088164;28;20360;-69
2023/06/23 09:47:53;;;;;;;;;;;;;;;-144.99;99.77;52134.22;5087712;28;19948;-71
2023/06/23 09:50:22;;;;;;;;;;;;;;;-144.99;99.15;52150.53;5088797;28;19956;-69
2023/06/23 09:53:00;;;;;;;;;;;;;;;-144.99;99.00;52162.75;5088520;28;19937;-69
2023/06/23 09:55:26;;;;;;;;;;;;;;;-144.99;98.54;52199.44;5087574;28;19988;-70
2023/06/23 09:57:53;;;;;;;;;;;;;;;-144.99;98.56;52166.81;5081331;28;19957;-70
2023/06/23 10:00:20;;;;;;;;;;;;;;;-144.99;98.77;52154.59;5088358;28;19951;-70
2023/06/23 10:02:48;;;;;;;;;;;;;;;-144.99;100.00;52150.53;5088046;28;19947;-69
2023/06/23 10:05:16;;;;;;;;;;;;;;;-144.99;98.46;52138.28;5088278;28;19953;-69
2023/06/23 10:07:43;;;;;;;;;;;;;;;-144.99;94.87;52115.88;5087879;28;19954;-69
2023/06/23 10:10:10;;;;;;;;;;;;;;;-144.99;93.10;52146.44;5088046;28;20076;-68
2023/06/23 10:12:39;;;;;;;;;;;;;;;-144.99;93.97;52126.06;5088343;28;19948;-68
2023/06/23 10:15:07;;;;;;;;;;;;;;;-144.99;95.40;52119.94;5087714;28;20496;-70
2023/06/23 10:17:34;;;;;;;;;;;;;;;-144.99;96.77;52162.75;5088762;28;19952;-69
2023/06/23 10:20:05;;;;;;;;;;;;;;;-144.99;93.55;52097.53;5088255;28;19996;-70
2023/06/23 10:22:32;;;;;;;;;;;;;;;-144.99;92.05;52113.84;5082015;28;19957;-69
2023/06/23 10:25:00;;;;;;;;;;;;;;;-144.99;91.51;52130.13;5089160;28;19948;-68
2023/06/23 10:27:27;;;;;;;;;;;;;;;-144.99;94.73;52113.84;5086463;28;19964;-69
2023/06/23 10:29:55;;;;;;;;;;;;;;;-144.99;94.55;52158.66;5084439;28;19957;-70
2023/06/23 10:32:23;;;;;;;;;;;;;;;-144.99;93.19;52130.13;5087042;28;19947;-70
2023/06/23 10:34:51;;;;;;;;;;;;;;;-144.99;92.49;52146.44;5086875;28;19993;-70
2023/06/23 10:37:21;;;;;;;;;;;;;;;-144.99;91.81;52126.06;5086196;28;19940;-70
2023/06/23 10:39:50;;;;;;;;;;;;;;;-144.99;91.28;52140.31;5085935;28;19969;-70
2023/06/23 10:42:17;;;;;;;;;;;;;;;-144.99;91.69;52093.44;5082689;28;19939;-70
2023/06/23 10:44:44;;;;;;;;;;;;;;;-144.99;91.70;52138.28;5086055;28;19948;-70
2023/06/23 10:47:10;;;;;;;;;;;;;;;-144.99;91.90;52154.59;5085779;28;20388;-71
2023/06/23 10:49:37;;;;;;;;;;;;;;;-144.99;91.68;52158.66;5081524;28;19965;-70
2023/06/23 10:52:04;;;;;;;;;;;;;;;-144.99;91.80;52105.69;5086371;28;19991;-71
2023/06/23 10:54:32;;;;;;;;;;;;;;;-144.99;91.90;52115.88;5086159;28;20487;-70
2023/06/23 10:57:00;;;;;;;;;;;;;;;-144.99;91.24;52130.13;5086120;28;19945;-70
2023/06/23 10:59:28;;;;;;;;;;;;;;;-144.99;90.81;52107.72;5083909;28;20363;-70
2023/06/23 11:02:12;;;;;;;;;;;;;;;-144.99;90.67;52113.84;5085528;28;20370;-71
2023/06/23 11:04:41;;;;;;;;;;;;;;;-144.99;90.02;52132.19;5069961;28;19942;-69
2023/06/23 11:07:08;;;;;;;;;;;;;;;-144.99;88.83;52162.75;5085646;28;19935;-69
2023/06/23 11:09:45;;;;;;;;;;;;;;;-144.99;87.49;52150.53;5085585;28;20437;-70
2023/06/23 11:12:31;;;;;;;;;;;;;;;-144.99;87.56;52146.44;5085681;28;19940;-70
2023/06/23 11:15:01;;;;;;;;;;;;;;;-144.99;87.88;52113.84;5080570;28;19959;-69
2023/06/23 11:17:28;;;;;;;;;;;;;;;-144.99;87.51;52142.38;5086488;28;19978;-69
2023/06/23 11:19:55;;;;;;;;;;;;;;;-144.99;87.01;52113.84;5085491;28;19959;-69
2023/06/23 11:22:22;;;;;;;;;;;;;;;-144.99;85.91;52126.06;5087489;28;19949;-70
2023/06/23 11:24:54;;;;;;;;;;;;;;;-144.99;86.26;52113.84;5086821;28;20395;-69
2023/06/23 11:27:20;;;;;;;;;;;;;;;-144.99;85.64;52121.97;5085112;28;20335;-69
2023/06/23 11:30:02;;;;;;;;;;;;;;;-144.99;85.59;52162.75;5085763;28;19971;-70
2023/06/23 11:32:29;;;;;;;;;;;;;;;-144.99;85.82;52146.44;5066003;28;19953;-69
2023/06/23 11:34:57;;;;;;;;;;;;;;;-144.99;85.79;52121.97;5085017;28;19964;-70
2023/06/23 11:37:28;;;;;;;;;;;;;;;-144.99;86.01;52126.06;5085527;28;20380;-69
2023/06/23 11:39:56;;;;;;;;;;;;;;;-144.99;86.21;52128.09;5084551;28;20398;-69
2023/06/23 11:42:23;;;;;;;;;;;;;;;-144.99;85.58;52154.59;5085684;28;19948;-70
2023/06/23 11:44:50;;;;;;;;;;;;;;;-144.99;85.40;52085.31;5089371;28;20134;-69
2023/06/23 11:47:23;;;;;;;;;;;;;;;-144.99;84.93;52150.53;5091253;28;20222;-69
2023/06/23 11:49:50;;;;;;;;;;;;;;;-144.99;84.47;52154.59;5090430;28;19958;-71
2023/06/23 11:52:17;;;;;;;;;;;;;;;-144.99;84.05;52146.44;5087042;28;19947;-69
2023/06/23 11:54:45;;;;;;;;;;;;;;;-144.99;82.57;52101.59;5088784;28;20041;-69
2023/06/23 11:57:15;;;;;;;;;;;;;;;-144.99;82.93;52142.38;5090834;28;19939;-69
2023/06/23 11:59:41;;;;;;;;;;;;;;;-144.99;82.74;52091.41;5089063;28;19959;-69
2023/06/23 12:02:08;;;;;;;;;;;;;;;-144.99;82.42;52121.97;5089252;28;19938;-69
2023/06/23 12:04:35;;;;;;;;;;;;;;;-144.99;82.20;52126.06;5088849;28;19957;-68
2023/06/23 12:07:03;;;;;;;;;;;;;;;-144.99;81.73;52113.84;5089350;28;19948;-68
2023/06/23 12:09:31;;;;;;;;;;;;;;;-144.99;82.11;52126.06;5089142;28;19955;-69
2023/06/23 12:11:58;;;;;;;;;;;;;;;-144.99;80.13;52126.06;5089237;28;20099;-68
2023/06/23 12:14:29;;;;;;;;;;;;;;;-144.99;78.86;52101.59;5089689;28;19948;-69
2023/06/23 12:17:09;;;;;;;;;;;;;;;-144.99;79.20;52117.91;5084220;28;19960;-69
2023/06/23 12:19:36;;;;;;;;;;;;;;;-144.99;78.77;52097.53;5088458;28;19995;-69
2023/06/23 12:22:03;;;;;;;;;;;;;;;-144.99;77.95;52099.56;5088982;28;20041;-69
2023/06/23 12:24:30;;;;;;;;;;;;;;;-144.99;75.35;52097.53;5089557;28;19984;-69